Time;durP1;ratioP1;P1;durP2;ratioP2;P2;SDS_P1;SDS_P2;PMS_P1;PMS_P2;Temp;Humidity;BMP_temperature;BMP_pressure;BME280_temperature;BME280_humidity;BME280_pressure;Samples;Min_cycle;Max_cycle;Signal;HPM_P1;HPM_P2
2022/12/22 03:26:38;;;;;;;0.88;0.82;;;11.40;99.90;;;;;;2073602;28;20029;-71
2022/12/22 03:27:39;;;;;;;0.73;0.73;;;11.40;99.90;;;;;;2074607;28;20021;-71
2022/12/22 03:28:39;;;;;;;2.90;1.17;;;11.40;99.90;;;;;;2074946;28;20074;-71
2022/12/22 03:29:40;;;;;;;1.20;0.75;;;11.40;99.90;;;;;;2076931;28;20026;-71
2022/12/22 03:30:40;;;;;;;1.48;1.10;;;11.40;99.90;;;;;;2076208;28;20027;-71
2022/12/22 03:31:41;;;;;;;0.80;0.80;;;11.40;99.90;;;;;;2074736;28;20579;-71
2022/12/22 03:32:41;;;;;;;1.02;0.90;;;11.40;99.90;;;;;;2075650;28;20029;-71
2022/12/22 03:33:42;;;;;;;1.20;1.10;;;11.40;99.90;;;;;;2075527;28;20556;-71
2022/12/22 03:34:42;;;;;;;1.17;1.00;;;11.40;99.90;;;;;;2074044;28;20031;-71
2022/12/22 03:35:43;;;;;;;1.40;1.00;;;11.50;99.90;;;;;;2075171;28;20077;-71
2022/12/22 03:36:43;;;;;;;1.30;1.20;;;11.50;99.90;;;;;;2075148;28;20404;-71
2022/12/22 03:37:44;;;;;;;1.55;1.10;;;11.50;99.90;;;;;;2075912;28;20052;-71
2022/12/22 03:38:45;;;;;;;1.98;1.02;;;11.50;99.90;;;;;;2073157;28;20036;-71
2022/12/22 03:39:45;;;;;;;1.35;1.25;;;11.50;99.90;;;;;;2072943;28;20053;-71
2022/12/22 03:40:46;;;;;;;1.40;1.30;;;11.50;99.90;;;;;;2075434;28;20041;-71
2022/12/22 03:47:03;;;;;;;1.77;1.30;;;11.60;99.90;;;;;;2073636;28;20033;-71
2022/12/22 03:48:03;;;;;;;1.50;1.40;;;11.60;99.90;;;;;;2074971;28;20022;-71
2022/12/22 03:49:10;;;;;;;1.27;1.17;;;11.60;99.90;;;;;;2072413;28;20030;-71
2022/12/22 03:50:10;;;;;;;1.75;1.10;;;11.60;99.90;;;;;;2074263;28;20021;-71
2022/12/22 03:51:11;;;;;;;1.13;1.10;;;11.60;99.90;;;;;;2071904;28;20057;-71
2022/12/22 03:52:11;;;;;;;1.63;1.52;;;11.60;99.90;;;;;;2073525;28;20059;-71
2022/12/22 03:53:12;;;;;;;1.35;1.25;;;11.60;99.90;;;;;;2074102;28;20032;-71
2022/12/22 03:54:15;;;;;;;1.35;1.25;;;11.60;99.90;;;;;;2074297;28;20022;-71
2022/12/22 03:55:16;;;;;;;2.55;1.48;;;11.60;99.90;;;;;;2073623;28;20132;-71
2022/12/22 03:56:16;;;;;;;1.85;1.20;;;11.60;99.90;;;;;;2072680;28;20025;-71
2022/12/22 03:57:17;;;;;;;1.55;1.23;;;11.60;99.90;;;;;;2075209;28;20064;-71
2022/12/22 03:58:17;;;;;;;1.30;1.20;;;11.60;99.90;;;;;;2074860;28;20698;-71
2022/12/22 03:59:19;;;;;;;2.13;1.42;;;11.60;99.90;;;;;;2071484;28;20025;-71
2022/12/22 04:00:19;;;;;;;3.70;1.25;;;11.60;99.90;;;;;;2074500;28;20030;-71
2022/12/22 04:01:20;;;;;;;1.85;1.40;;;11.70;99.90;;;;;;2074822;28;20871;-71
2022/12/22 04:02:21;;;;;;;1.90;1.80;;;11.70;99.90;;;;;;2072474;28;20382;-71
2022/12/22 04:03:21;;;;;;;1.33;1.30;;;11.70;99.90;;;;;;2074115;28;20051;-71
2022/12/22 04:04:24;;;;;;;2.97;1.55;;;11.70;99.90;;;;;;2074145;28;20036;-71
2022/12/22 04:05:25;;;;;;;2.42;1.15;;;11.70;99.90;;;;;;2073987;28;20080;-71
2022/12/22 04:06:26;;;;;;;1.83;1.23;;;11.70;99.90;;;;;;2073465;28;20026;-71
2022/12/22 04:07:26;;;;;;;1.30;1.20;;;11.70;99.90;;;;;;2073657;28;20117;-71
2022/12/22 04:08:27;;;;;;;1.63;1.33;;;11.70;99.90;;;;;;2076833;28;20073;-71
2022/12/22 04:09:28;;;;;;;3.58;1.58;;;11.70;99.90;;;;;;2069755;28;20390;-71
2022/12/22 04:13:06;;;;;;;1.30;1.20;;;11.70;99.90;;;;;;2073782;28;20065;-71
2022/12/22 04:14:07;;;;;;;1.25;1.15;;;11.70;99.90;;;;;;2074642;28;20021;-71
2022/12/22 04:15:08;;;;;;;1.42;1.33;;;11.70;99.90;;;;;;2073007;28;20026;-71
2022/12/22 04:16:08;;;;;;;2.05;1.30;;;11.70;99.90;;;;;;2073523;28;20052;-71
2022/12/22 04:17:09;;;;;;;1.35;1.25;;;11.70;99.90;;;;;;2073558;28;20059;-71
2022/12/22 04:18:10;;;;;;;1.02;0.88;;;11.70;99.90;;;;;;2075705;28;20044;-71
2022/12/22 04:19:10;;;;;;;1.58;1.00;;;11.70;99.90;;;;;;2074219;28;20033;-71
2022/12/22 04:20:11;;;;;;;1.50;0.80;;;11.70;99.90;;;;;;2074468;28;20109;-71
2022/12/22 04:21:12;;;;;;;1.90;0.82;;;11.70;99.90;;;;;;2073667;28;20022;-71
2022/12/22 04:22:12;;;;;;;1.88;1.20;;;11.70;99.90;;;;;;2075024;28;20129;-71
2022/12/22 04:23:13;;;;;;;2.38;1.70;;;11.70;99.90;;;;;;2072815;28;20033;-71
2022/12/22 04:24:13;;;;;;;1.50;1.40;;;11.70;99.90;;;;;;2073994;28;20495;-71
2022/12/22 04:25:15;;;;;;;1.20;0.85;;;11.70;99.90;;;;;;2074125;28;20029;-71
2022/12/22 04:26:17;;;;;;;0.93;0.93;;;11.70;99.90;;;;;;2074246;28;20038;-71
2022/12/22 04:27:18;;;;;;;1.00;0.93;;;11.70;99.90;;;;;;2073833;28;20017;-71
2022/12/22 04:28:18;;;;;;;1.00;0.90;;;11.70;99.90;;;;;;2074478;28;20775;-71
2022/12/22 04:29:19;;;;;;;1.02;0.93;;;11.70;99.90;;;;;;2072619;28;20030;-71
2022/12/22 04:30:19;;;;;;;1.88;1.10;;;11.70;99.90;;;;;;2072581;28;20033;-71
2022/12/22 04:31:20;;;;;;;1.00;1.00;;;11.70;99.90;;;;;;2073614;28;20109;-71
2022/12/22 04:32:21;;;;;;;0.98;0.90;;;11.70;99.90;;;;;;2074124;28;20160;-71
2022/12/22 04:33:21;;;;;;;1.20;0.90;;;11.70;99.90;;;;;;2075862;28;20076;-71
2022/12/22 04:34:22;;;;;;;0.68;0.68;;;11.70;99.90;;;;;;2073517;28;20915;-71
2022/12/22 04:35:23;;;;;;;0.73;0.73;;;11.70;99.90;;;;;;2075033;28;20024;-71
2022/12/22 04:36:23;;;;;;;1.10;0.70;;;11.70;99.90;;;;;;2073844;28;20677;-71
2022/12/22 04:37:24;;;;;;;0.90;0.88;;;11.70;99.90;;;;;;2074122;28;20042;-71
2022/12/22 04:38:24;;;;;;;0.70;0.70;;;11.70;99.90;;;;;;2075685;28;20562;-71
2022/12/22 04:39:25;;;;;;;0.90;0.80;;;11.70;99.90;;;;;;2073253;28;20030;-71
2022/12/22 04:40:25;;;;;;;0.95;0.70;;;11.80;99.90;;;;;;2074662;28;20084;-71
2022/12/22 04:41:26;;;;;;;2.38;0.80;;;11.80;99.90;;;;;;2073215;28;20045;-71
2022/12/22 04:42:26;;;;;;;0.80;0.80;;;11.70;99.90;;;;;;2074067;28;20029;-71
2022/12/22 04:43:27;;;;;;;1.77;0.80;;;11.80;99.90;;;;;;2075304;28;20171;-71
2022/12/22 04:44:27;;;;;;;0.70;0.70;;;11.70;99.90;;;;;;2072466;28;20034;-71
2022/12/22 04:45:28;;;;;;;0.80;0.80;;;11.80;99.90;;;;;;2072639;28;20036;-71
2022/12/22 04:46:28;;;;;;;1.30;0.88;;;11.80;99.90;;;;;;2076471;28;20017;-71
2022/12/22 04:47:29;;;;;;;4.43;0.88;;;11.70;99.90;;;;;;2075245;28;20032;-71
2022/12/22 04:48:30;;;;;;;0.88;0.73;;;11.80;99.90;;;;;;2073515;28;20033;-71
2022/12/22 04:49:30;;;;;;;1.25;0.90;;;11.80;99.90;;;;;;2073587;28;20136;-71
2022/12/22 04:50:31;;;;;;;1.02;0.82;;;11.70;99.90;;;;;;2074730;28;20125;-71
2022/12/22 04:51:32;;;;;;;0.70;0.70;;;11.80;99.90;;;;;;2074057;28;20018;-71
2022/12/22 04:52:32;;;;;;;1.33;0.98;;;11.80;99.90;;;;;;2073146;28;20025;-71
2022/12/22 04:53:33;;;;;;;1.75;0.80;;;11.80;99.90;;;;;;2073721;28;20026;-71
2022/12/22 04:54:33;;;;;;;1.85;0.70;;;11.80;99.90;;;;;;2072393;28;20608;-71
2022/12/22 04:55:34;;;;;;;0.73;0.73;;;11.80;99.90;;;;;;2074542;28;20639;-71
2022/12/22 04:56:35;;;;;;;0.90;0.50;;;11.80;99.90;;;;;;2072938;28;20025;-71
2022/12/22 04:57:35;;;;;;;1.10;0.52;;;11.80;99.90;;;;;;2074014;28;20029;-71
2022/12/22 04:58:36;;;;;;;1.30;0.70;;;11.80;99.90;;;;;;2074202;28;20037;-71
2022/12/22 04:59:36;;;;;;;0.60;0.60;;;11.80;99.90;;;;;;2072736;28;20022;-71
2022/12/22 05:00:37;;;;;;;1.50;0.63;;;11.80;99.90;;;;;;2073454;28;20018;-71
2022/12/22 05:01:38;;;;;;;3.30;0.82;;;11.80;99.90;;;;;;2074782;28;20084;-71
2022/12/22 05:02:38;;;;;;;1.38;0.90;;;11.80;99.90;;;;;;2073755;28;20129;-71
2022/12/22 05:03:39;;;;;;;2.08;0.88;;;11.80;99.90;;;;;;2073292;28;20033;-71
2022/12/22 05:04:39;;;;;;;0.85;0.70;;;11.80;99.90;;;;;;2074058;28;20026;-71
2022/12/22 05:05:40;;;;;;;0.75;0.73;;;11.80;99.90;;;;;;2074903;28;20100;-71
2022/12/22 05:06:40;;;;;;;0.50;0.50;;;11.80;99.90;;;;;;2074358;28;20037;-71
2022/12/22 05:07:42;;;;;;;0.60;0.50;;;11.80;99.90;;;;;;2072761;28;20517;-71
2022/12/22 05:08:42;;;;;;;1.10;0.80;;;11.80;99.90;;;;;;2073568;28;20432;-71
2022/12/22 05:09:43;;;;;;;0.73;0.60;;;11.80;99.90;;;;;;2074544;28;20129;-71
2022/12/22 05:10:43;;;;;;;0.73;0.63;;;11.80;99.90;;;;;;2073188;28;20021;-71
2022/12/22 05:11:44;;;;;;;0.60;0.60;;;11.80;99.90;;;;;;2074352;28;20037;-71
2022/12/22 05:12:53;;;;;;;0.60;0.60;;;11.80;99.90;;;;;;2073631;28;20018;-71
2022/12/22 05:13:54;;;;;;;1.65;1.00;;;11.80;99.90;;;;;;2072887;28;20029;-71
2022/12/22 05:14:54;;;;;;;1.42;0.80;;;11.80;99.90;;;;;;2073439;28;20037;-71
2022/12/22 05:16:05;;;;;;;1.85;0.80;;;11.80;99.90;;;;;;2072022;28;20033;-71
2022/12/22 05:17:06;;;;;;;1.48;0.70;;;11.80;99.90;;;;;;2073220;28;20497;-71
2022/12/22 05:18:06;;;;;;;2.80;0.80;;;11.80;99.90;;;;;;2073196;28;20433;-71
2022/12/22 05:19:07;;;;;;;1.40;0.70;;;11.80;99.90;;;;;;2073843;28;20049;-71
2022/12/22 05:20:08;;;;;;;2.25;0.90;;;11.80;99.90;;;;;;2073492;28;20049;-71
2022/12/22 05:21:12;;;;;;;0.80;0.80;;;11.80;99.90;;;;;;2075197;28;20030;-71
2022/12/22 05:22:12;;;;;;;1.58;0.80;;;11.80;99.90;;;;;;2073934;28;20414;-71
2022/12/22 05:23:13;;;;;;;1.25;0.77;;;11.80;99.90;;;;;;2072506;28;20123;-71
2022/12/22 05:24:13;;;;;;;0.70;0.70;;;11.80;99.90;;;;;;2074447;28;20033;-71
2022/12/22 05:25:18;;;;;;;1.15;0.88;;;11.80;99.90;;;;;;2073014;28;20034;-71
2022/12/22 05:26:19;;;;;;;5.15;0.77;;;11.80;99.90;;;;;;2073539;28;20022;-71
2022/12/22 05:27:19;;;;;;;1.00;0.70;;;11.90;99.90;;;;;;2075890;28;20117;-71
2022/12/22 05:28:20;;;;;;;3.03;0.70;;;11.80;99.90;;;;;;2075112;28;20037;-71
2022/12/22 05:29:21;;;;;;;0.90;0.55;;;11.90;99.90;;;;;;2072123;28;20093;-71
2022/12/22 05:30:21;;;;;;;1.10;0.80;;;11.90;99.90;;;;;;2072665;28;20021;-71
2022/12/22 05:31:24;;;;;;;0.85;0.70;;;11.80;99.90;;;;;;2072022;28;20029;-71
2022/12/22 05:32:24;;;;;;;1.30;0.60;;;11.90;99.90;;;;;;2075161;28;20096;-71
2022/12/22 05:33:25;;;;;;;0.82;0.60;;;11.90;99.90;;;;;;2072862;28;20815;-71
2022/12/22 05:34:26;;;;;;;0.80;0.57;;;11.90;99.90;;;;;;2074304;28;20022;-71
2022/12/22 05:35:26;;;;;;;1.02;0.90;;;11.90;99.90;;;;;;2075653;28;20029;-71
2022/12/22 05:36:27;;;;;;;2.08;0.80;;;11.90;99.90;;;;;;2073143;28;20033;-71
2022/12/22 05:37:28;;;;;;;0.90;0.70;;;11.90;99.90;;;;;;2072836;28;20497;-71
2022/12/22 05:38:28;;;;;;;1.08;0.65;;;11.90;99.90;;;;;;2074067;28;20056;-71
2022/12/22 05:39:29;;;;;;;1.40;0.70;;;11.90;99.90;;;;;;2075837;28;20041;-71
2022/12/22 05:40:29;;;;;;;2.70;0.65;;;11.90;99.90;;;;;;2077892;28;20044;-71
2022/12/22 05:41:30;;;;;;;0.68;0.60;;;11.90;99.90;;;;;;2073500;28;20017;-71
2022/12/22 05:42:36;;;;;;;0.55;0.55;;;11.90;99.90;;;;;;2074778;28;20129;-71
2022/12/22 05:43:37;;;;;;;0.80;0.47;;;11.90;99.90;;;;;;2074661;28;20768;-71
2022/12/22 05:44:38;;;;;;;1.88;0.50;;;11.90;99.90;;;;;;2072622;28;20040;-71
2022/12/22 05:45:39;;;;;;;1.13;0.60;;;11.90;99.90;;;;;;2073627;28;20045;-71
2022/12/22 05:46:39;;;;;;;4.30;0.73;;;11.90;99.90;;;;;;2074816;28;20041;-71
2022/12/22 05:47:41;;;;;;;1.85;0.82;;;11.90;99.90;;;;;;2073118;28;20054;-71
2022/12/22 05:48:42;;;;;;;0.95;0.88;;;11.90;99.90;;;;;;2073721;28;20617;-71
2022/12/22 05:49:42;;;;;;;0.77;0.70;;;12.00;99.90;;;;;;2073682;28;20523;-71
2022/12/22 05:50:43;;;;;;;2.05;0.98;;;12.00;99.90;;;;;;2073601;28;20081;-71
2022/12/22 05:51:44;;;;;;;1.25;1.00;;;12.00;99.90;;;;;;2072936;28;20018;-71
2022/12/22 05:52:45;;;;;;;3.00;1.00;;;12.00;99.90;;;;;;2072459;28;20049;-71
2022/12/22 05:53:46;;;;;;;2.13;1.15;;;12.00;99.90;;;;;;2074237;28;20029;-71
2022/12/22 05:54:46;;;;;;;1.83;1.23;;;12.00;99.90;;;;;;2071637;28;20560;-71
2022/12/22 05:55:47;;;;;;;2.00;1.33;;;12.00;99.90;;;;;;2073489;28;20560;-71
2022/12/22 05:56:47;;;;;;;1.50;1.20;;;12.00;99.90;;;;;;2073405;28;20028;-71
2022/12/22 05:57:48;;;;;;;9.50;1.58;;;12.00;99.90;;;;;;2072303;28;20728;-71
2022/12/22 05:58:48;;;;;;;2.60;1.45;;;12.00;99.90;;;;;;2073817;28;20064;-71
2022/12/22 05:59:49;;;;;;;1.50;1.30;;;12.00;99.90;;;;;;2072483;28;20197;-71
2022/12/22 06:00:49;;;;;;;1.42;1.33;;;12.00;99.90;;;;;;2072330;28;20851;-71
2022/12/22 06:01:50;;;;;;;1.80;1.70;;;12.00;99.90;;;;;;2073970;28;20497;-71
2022/12/22 06:02:50;;;;;;;2.00;1.90;;;12.00;99.90;;;;;;2074513;28;20076;-71
2022/12/22 06:03:51;;;;;;;1.63;1.30;;;12.00;99.90;;;;;;2075792;28;20029;-71
2022/12/22 06:04:52;;;;;;;1.40;1.30;;;12.00;99.90;;;;;;2074689;28;20673;-71
2022/12/22 06:05:53;;;;;;;1.45;1.35;;;12.00;99.90;;;;;;2071806;28;20030;-71
2022/12/22 06:06:53;;;;;;;1.35;1.30;;;12.00;99.90;;;;;;2075703;28;20037;-71
2022/12/22 06:07:54;;;;;;;3.42;1.73;;;12.00;99.90;;;;;;2073658;28;20072;-71
2022/12/22 06:08:54;;;;;;;2.95;2.00;;;12.00;99.90;;;;;;2074785;28;20033;-71
2022/12/22 06:09:55;;;;;;;1.95;1.77;;;12.00;99.90;;;;;;2073366;28;20053;-71
2022/12/22 06:10:57;;;;;;;1.92;1.63;;;12.00;99.90;;;;;;2072648;28;20022;-71
2022/12/22 06:11:58;;;;;;;2.88;2.10;;;12.00;99.90;;;;;;2073268;28;20109;-71
2022/12/22 06:12:58;;;;;;;2.08;1.65;;;12.00;99.90;;;;;;2073538;28;20087;-71
2022/12/22 06:13:59;;;;;;;2.28;1.90;;;12.00;99.90;;;;;;2074020;28;20489;-71
2022/12/22 06:14:59;;;;;;;1.42;1.33;;;12.00;99.90;;;;;;2072449;28;20053;-71
2022/12/22 06:16:00;;;;;;;2.28;1.48;;;12.00;99.90;;;;;;2074127;28;20040;-71
2022/12/22 06:17:01;;;;;;;11.48;2.40;;;12.00;99.90;;;;;;2073935;28;20639;-71
2022/12/22 06:18:01;;;;;;;3.65;1.60;;;12.00;99.90;;;;;;2073514;28;20021;-71
2022/12/22 06:19:02;;;;;;;3.00;2.58;;;12.00;99.90;;;;;;2072894;28;20076;-71
2022/12/22 06:20:04;;;;;;;2.35;1.77;;;12.00;99.90;;;;;;2071708;28;20029;-71
2022/12/22 06:21:04;;;;;;;1.70;1.60;;;12.10;99.90;;;;;;2074039;28;20515;-71
2022/12/22 06:22:05;;;;;;;2.03;1.75;;;12.00;99.90;;;;;;2074345;28;20476;-71
2022/12/22 06:23:06;;;;;;;2.75;2.05;;;12.00;99.90;;;;;;2073866;28;20156;-71
2022/12/22 06:24:06;;;;;;;3.97;2.08;;;12.00;99.90;;;;;;2073595;28;20034;-71
2022/12/22 06:25:08;;;;;;;3.60;2.30;;;12.00;99.90;;;;;;2072909;28;20667;-71
2022/12/22 06:26:08;;;;;;;2.55;2.05;;;12.00;99.90;;;;;;2073907;28;20554;-71
2022/12/22 06:27:09;;;;;;;2.78;1.55;;;12.00;99.90;;;;;;2075318;28;20659;-71
2022/12/22 06:28:10;;;;;;;2.75;1.83;;;12.00;99.90;;;;;;2075039;28;20030;-71
2022/12/22 06:29:11;;;;;;;3.58;1.85;;;12.00;99.90;;;;;;2075186;28;20053;-71
2022/12/22 06:30:11;;;;;;;3.78;1.88;;;12.00;99.90;;;;;;2074218;28;20466;-71
2022/12/22 06:31:12;;;;;;;3.35;2.22;;;12.00;99.90;;;;;;2073294;28;20034;-71
2022/12/22 06:32:12;;;;;;;2.33;2.10;;;12.00;99.90;;;;;;2075495;28;20026;-71
2022/12/22 06:33:13;;;;;;;3.47;1.88;;;12.00;99.90;;;;;;2075053;28;20034;-71
2022/12/22 06:34:16;;;;;;;2.60;1.92;;;12.00;99.90;;;;;;2073756;28;20088;-71
2022/12/22 06:35:17;;;;;;;3.17;1.90;;;12.00;99.90;;;;;;2075119;28;20065;-71
2022/12/22 06:36:17;;;;;;;2.58;2.00;;;12.00;99.90;;;;;;2075709;28;20076;-71
2022/12/22 06:37:18;;;;;;;2.33;2.00;;;12.00;99.90;;;;;;2076670;28;20030;-71
2022/12/22 06:38:18;;;;;;;3.33;1.90;;;12.00;99.90;;;;;;2074368;28;20040;-71
2022/12/22 06:39:19;;;;;;;3.53;2.75;;;12.00;99.90;;;;;;2074487;28;20026;-71
2022/12/22 06:40:20;;;;;;;2.15;2.03;;;12.00;99.90;;;;;;2073022;28;20056;-71
2022/12/22 06:43:09;;;;;;;3.08;2.65;;;12.00;99.90;;;;;;2061749;28;20090;-71
2022/12/22 06:44:09;;;;;;;2.35;2.15;;;11.90;99.90;;;;;;2073851;28;20078;-71
2022/12/22 06:45:10;;;;;;;7.05;3.10;;;11.90;99.90;;;;;;2074908;28;20032;-71
2022/12/22 06:46:11;;;;;;;4.95;2.35;;;11.90;99.90;;;;;;2074891;28;20025;-71
2022/12/22 06:47:11;;;;;;;2.55;2.35;;;12.00;99.90;;;;;;2075477;28;20022;-71
2022/12/22 06:48:12;;;;;;;2.53;2.33;;;12.00;99.90;;;;;;2075292;28;20109;-71
2022/12/22 06:49:13;;;;;;;2.95;2.42;;;12.00;99.90;;;;;;2073718;28;20491;-71
2022/12/22 06:50:13;;;;;;;2.83;2.63;;;12.00;99.90;;;;;;2074195;28;20025;-71
2022/12/22 06:51:14;;;;;;;4.32;2.53;;;12.00;99.90;;;;;;2074002;28;20026;-71
2022/12/22 06:52:14;;;;;;;3.00;2.30;;;12.00;99.90;;;;;;2073273;28;20464;-70
2022/12/22 06:53:15;;;;;;;2.85;2.40;;;12.00;99.90;;;;;;2074421;28;20033;-71
2022/12/22 06:54:16;;;;;;;2.45;2.33;;;12.00;99.90;;;;;;2073167;28;20113;-71
2022/12/22 06:55:16;;;;;;;3.22;2.40;;;12.00;99.90;;;;;;2073722;28;20510;-71
2022/12/22 06:56:20;;;;;;;3.15;2.35;;;12.00;99.90;;;;;;2073523;28;20092;-71
2022/12/22 06:57:20;;;;;;;67.72;7.03;;;12.00;99.90;;;;;;2074147;28;20108;-71
2022/12/22 06:58:21;;;;;;;10.13;3.00;;;12.00;99.90;;;;;;2076143;28;20044;-71
2022/12/22 06:59:21;;;;;;;3.35;2.22;;;12.00;99.90;;;;;;2073171;28;20572;-71
2022/12/22 07:00:22;;;;;;;44.75;5.43;;;12.00;99.90;;;;;;2074448;28;20088;-71
2022/12/22 07:01:23;;;;;;;27.70;3.97;;;12.00;99.90;;;;;;2074605;28;20034;-70
2022/12/22 07:02:24;;;;;;;28.55;4.45;;;12.00;99.90;;;;;;2073969;28;20485;-70
2022/12/22 07:03:24;;;;;;;8.60;2.30;;;12.00;99.90;;;;;;2073086;28;20033;-70
2022/12/22 07:04:25;;;;;;;2.70;2.45;;;12.00;99.90;;;;;;2074469;28;20084;-70
2022/12/22 07:05:25;;;;;;;2.50;2.30;;;12.00;99.90;;;;;;2075549;28;20029;-71
2022/12/22 07:06:26;;;;;;;2.70;2.50;;;12.00;99.90;;;;;;2075508;28;20480;-71
2022/12/22 07:07:26;;;;;;;2.42;2.33;;;12.00;99.90;;;;;;2075104;28;20017;-71
2022/12/22 07:08:27;;;;;;;76.43;6.13;;;12.00;99.90;;;;;;2075796;28;20014;-71
2022/12/22 07:09:27;;;;;;;10.02;2.45;;;12.00;99.90;;;;;;2074612;28;20032;-71
2022/12/22 07:11:47;;;;;;;4.38;2.17;;;12.00;99.90;;;;;;2074791;28;20022;-71
2022/12/22 07:12:48;;;;;;;20.20;3.28;;;12.00;99.90;;;;;;2072868;28;20640;-71
2022/12/22 07:13:48;;;;;;;8.68;2.35;;;12.00;99.90;;;;;;2075211;28;20021;-71
2022/12/22 07:14:49;;;;;;;5.00;2.40;;;11.90;99.90;;;;;;2074198;28;20022;-71
2022/12/22 07:15:50;;;;;;;2.42;1.80;;;11.90;99.90;;;;;;2074290;28;20040;-71
2022/12/22 07:16:51;;;;;;;4.47;2.28;;;11.90;99.90;;;;;;2074259;28;20022;-71
2022/12/22 07:17:52;;;;;;;4.82;2.30;;;11.90;99.90;;;;;;2072802;28;20036;-70
2022/12/22 07:18:53;;;;;;;9.70;2.70;;;12.00;99.90;;;;;;2074812;28;20033;-71
2022/12/22 07:19:53;;;;;;;2.47;2.28;;;12.00;99.90;;;;;;2076801;28;20104;-71
2022/12/22 07:20:54;;;;;;;5.32;2.72;;;12.00;99.90;;;;;;2075259;28;20026;-71
2022/12/22 07:21:54;;;;;;;4.10;3.08;;;12.00;99.90;;;;;;2073603;28;20033;-71
2022/12/22 07:22:55;;;;;;;2.80;2.60;;;12.00;99.90;;;;;;2074432;28;20510;-71
2022/12/22 07:23:55;;;;;;;3.30;3.10;;;12.00;99.90;;;;;;2075293;28;20057;-71
2022/12/22 07:24:56;;;;;;;2.75;2.25;;;12.00;99.90;;;;;;2074075;28;20014;-71
2022/12/22 07:25:57;;;;;;;4.32;2.60;;;12.00;99.90;;;;;;2074766;28;20030;-71
2022/12/22 07:26:58;;;;;;;2.65;2.45;;;12.00;99.90;;;;;;2074350;28;20022;-71
2022/12/22 07:27:58;;;;;;;2.88;2.63;;;12.00;99.90;;;;;;2072823;28;20029;-71
2022/12/22 07:28:59;;;;;;;5.82;2.72;;;12.00;99.90;;;;;;2075219;28;20838;-71
2022/12/22 07:29:59;;;;;;;6.82;3.00;;;11.90;99.90;;;;;;2075899;28;20080;-71
2022/12/22 07:31:00;;;;;;;4.28;2.83;;;12.00;99.90;;;;;;2073710;28;20501;-71
2022/12/22 07:32:02;;;;;;;2.90;2.70;;;11.90;99.90;;;;;;2073564;28;20029;-71
2022/12/22 07:33:03;;;;;;;4.10;3.80;;;12.00;99.90;;;;;;2073943;28;20108;-71
2022/12/22 07:34:04;;;;;;;5.13;4.65;;;11.90;99.90;;;;;;2073449;28;20071;-71
2022/12/22 07:35:05;;;;;;;6.32;5.72;;;11.90;99.90;;;;;;2073427;28;20029;-71
2022/12/22 07:36:07;;;;;;;7.93;6.65;;;11.90;99.90;;;;;;2073217;28;20029;-71
2022/12/22 07:37:08;;;;;;;7.20;6.55;;;11.90;99.90;;;;;;2071824;28;20079;-71
2022/12/22 07:38:08;;;;;;;6.93;6.28;;;11.90;99.90;;;;;;2073389;28;20029;-71
2022/12/22 07:39:10;;;;;;;8.07;7.28;;;11.90;99.90;;;;;;2072780;28;20030;-71
2022/12/22 07:40:11;;;;;;;8.00;6.97;;;11.90;99.90;;;;;;2074469;28;20085;-71
2022/12/22 07:42:45;;;;;;;7.53;6.85;;;11.90;99.90;;;;;;2074102;28;20038;-71
2022/12/22 07:43:45;;;;;;;8.57;7.75;;;11.90;99.90;;;;;;2072807;28;20036;-71
2022/12/22 07:44:46;;;;;;;13.00;8.55;;;11.90;99.90;;;;;;2072622;28;20036;-71
2022/12/22 07:45:46;;;;;;;9.10;8.30;;;11.90;99.90;;;;;;2074605;28;20033;-71
2022/12/22 07:46:47;;;;;;;9.45;8.65;;;11.90;99.90;;;;;;2075440;28;20371;-71
2022/12/22 07:47:47;;;;;;;11.68;9.05;;;11.80;99.90;;;;;;2072061;28;20662;-71
2022/12/22 07:50:24;;;;;;;10.52;9.35;;;11.90;99.90;;;;;;2073499;28;20466;-71
2022/12/22 07:51:24;;;;;;;10.77;9.63;;;11.90;99.90;;;;;;2074202;28;20562;-71
2022/12/22 07:52:25;;;;;;;11.48;10.20;;;11.90;99.90;;;;;;2072866;28;20076;-71
2022/12/22 07:53:26;;;;;;;12.73;10.10;;;11.80;99.90;;;;;;2074742;28;20393;-71
2022/12/22 07:54:27;;;;;;;10.70;9.60;;;11.80;99.90;;;;;;2071989;28;20121;-71
2022/12/22 07:55:34;;;;;;;12.50;10.50;;;11.80;99.90;;;;;;2071967;28;20049;-71
2022/12/22 07:56:35;;;;;;;11.30;10.27;;;11.80;99.90;;;;;;2072520;28;20025;-71
2022/12/22 07:57:36;;;;;;;12.35;11.15;;;11.80;99.90;;;;;;2073570;28;20036;-71
2022/12/22 07:58:36;;;;;;;12.60;11.30;;;11.80;99.90;;;;;;2075261;28;20029;-71
2022/12/22 07:59:37;;;;;;;14.23;12.38;;;11.80;99.90;;;;;;2074854;28;20049;-71
2022/12/22 08:00:37;;;;;;;14.02;11.68;;;11.80;99.90;;;;;;2071746;28;20048;-71
2022/12/22 08:01:40;;;;;;;13.93;12.15;;;11.80;99.90;;;;;;2073444;28;20028;-71
2022/12/22 08:02:41;;;;;;;14.38;12.80;;;11.80;99.90;;;;;;2073113;28;20064;-71
2022/12/22 08:03:41;;;;;;;15.75;13.18;;;11.80;99.90;;;;;;2074908;28;20026;-71
2022/12/22 08:04:42;;;;;;;13.63;12.32;;;11.80;99.90;;;;;;2074145;28;20029;-71
2022/12/22 08:05:43;;;;;;;14.07;12.73;;;11.80;99.90;;;;;;2072345;28;20022;-71
2022/12/22 08:06:44;;;;;;;14.85;13.35;;;11.80;99.90;;;;;;2073013;28;20029;-71
2022/12/22 08:07:46;;;;;;;16.35;14.48;;;11.80;99.90;;;;;;2073667;28;20026;-71
2022/12/22 08:08:47;;;;;;;18.13;14.35;;;11.80;99.90;;;;;;2074694;28;20022;-71
2022/12/22 08:09:47;;;;;;;18.50;14.02;;;11.70;99.90;;;;;;2074802;28;20026;-71
2022/12/22 08:10:48;;;;;;;16.90;14.48;;;11.70;99.90;;;;;;2073215;28;20362;-71
2022/12/22 08:11:49;;;;;;;18.73;15.25;;;11.70;99.90;;;;;;2073085;28;20022;-71
2022/12/22 08:12:49;;;;;;;17.33;15.52;;;11.70;99.90;;;;;;2073512;28;20029;-71
2022/12/22 08:13:50;;;;;;;16.85;14.93;;;11.70;99.90;;;;;;2071867;28;20026;-71
2022/12/22 08:14:50;;;;;;;17.77;15.13;;;11.70;99.90;;;;;;2074112;28;20072;-71
2022/12/22 08:15:51;;;;;;;16.70;14.65;;;11.70;99.90;;;;;;2072874;28;20021;-71
2022/12/22 08:16:51;;;;;;;15.50;13.95;;;11.70;99.90;;;;;;2073418;28;20512;-71
2022/12/22 08:17:52;;;;;;;16.48;14.73;;;11.70;99.90;;;;;;2073802;28;20033;-71
2022/12/22 08:18:53;;;;;;;16.13;14.40;;;11.70;99.90;;;;;;2074339;28;21120;-71
2022/12/22 08:19:54;;;;;;;18.33;14.75;;;11.70;99.90;;;;;;2073711;28;20026;-71
2022/12/22 08:20:55;;;;;;;17.73;14.13;;;11.70;99.90;;;;;;2075957;28;20983;-71
2022/12/22 08:21:55;;;;;;;15.10;13.50;;;11.70;99.90;;;;;;2075184;28;20179;-71
2022/12/22 08:22:56;;;;;;;15.45;13.88;;;11.70;99.90;;;;;;2075817;28;20030;-71
2022/12/22 08:23:57;;;;;;;14.90;13.40;;;11.70;99.90;;;;;;2072878;28;20041;-71
2022/12/22 08:24:57;;;;;;;17.63;14.48;;;11.70;99.90;;;;;;2073303;28;20029;-71
2022/12/22 08:26:05;;;;;;;15.15;13.18;;;11.70;99.90;;;;;;2074745;28;20134;-71
2022/12/22 08:27:12;;;;;;;17.63;13.80;;;11.70;99.90;;;;;;2073639;28;20087;-71
2022/12/22 08:28:15;;;;;;;14.45;12.95;;;11.70;99.90;;;;;;2074920;28;20028;-70
2022/12/22 08:29:30;;;;;;;14.85;13.35;;;11.70;99.90;;;;;;2073708;28;20017;-70
2022/12/22 08:30:32;;;;;;;14.35;13.02;;;11.70;99.90;;;;;;2074962;28;20169;-70
2022/12/22 08:31:33;;;;;;;15.02;13.40;;;11.70;99.90;;;;;;2074514;28;20457;-70
2022/12/22 08:32:36;;;;;;;15.23;13.63;;;11.70;99.90;;;;;;2074019;28;20398;-70
2022/12/22 08:33:36;;;;;;;14.75;12.40;;;11.70;99.90;;;;;;2075131;28;20022;-70
2022/12/22 08:34:37;;;;;;;13.77;12.48;;;11.70;99.90;;;;;;2073529;28;20034;-70
2022/12/22 08:35:37;;;;;;;14.07;12.70;;;11.70;99.90;;;;;;2077154;28;20449;-70
2022/12/22 08:36:42;;;;;;;15.02;12.80;;;11.80;99.90;;;;;;2078309;28;20017;-70
2022/12/22 08:37:45;;;;;;;14.18;12.70;;;11.80;99.90;;;;;;2073077;28;20022;-70
2022/12/22 08:38:45;;;;;;;14.50;12.93;;;11.80;99.90;;;;;;2074921;28;20457;-70
2022/12/22 08:39:51;;;;;;;14.23;12.80;;;11.80;99.90;;;;;;2073322;28;20018;-70
2022/12/22 08:40:52;;;;;;;14.18;12.20;;;11.80;99.90;;;;;;2073082;28;20018;-70
2022/12/22 08:41:53;;;;;;;13.90;11.98;;;11.80;99.90;;;;;;2073169;28;20030;-70
2022/12/22 08:42:58;;;;;;;14.02;11.77;;;11.80;99.90;;;;;;2073451;28;20033;-70
2022/12/22 08:43:58;;;;;;;13.68;12.25;;;11.80;99.90;;;;;;2074182;28;20048;-70
2022/12/22 08:44:59;;;;;;;14.00;12.57;;;11.70;99.90;;;;;;2074404;28;20716;-70
2022/12/22 08:45:59;;;;;;;16.42;12.65;;;11.70;99.90;;;;;;2073041;28;20120;-70
2022/12/22 08:47:00;;;;;;;14.98;12.85;;;11.70;99.90;;;;;;2074292;28;20033;-70
2022/12/22 08:48:00;;;;;;;15.25;13.23;;;11.70;99.90;;;;;;2072612;28;20025;-70
2022/12/22 08:49:01;;;;;;;15.88;13.10;;;11.70;99.90;;;;;;2072785;28;20018;-70
2022/12/22 08:50:02;;;;;;;20.52;12.70;;;11.70;99.90;;;;;;2074839;28;20017;-70
2022/12/22 08:51:03;;;;;;;14.80;12.93;;;11.70;99.90;;;;;;2072076;28;20037;-70
2022/12/22 08:52:04;;;;;;;13.88;12.48;;;11.70;99.90;;;;;;2073515;28;20033;-70
2022/12/22 08:53:06;;;;;;;15.80;13.30;;;11.70;99.90;;;;;;2072128;28;20032;-70
2022/12/22 08:54:07;;;;;;;15.77;11.93;;;11.70;99.90;;;;;;2074670;28;20026;-70
2022/12/22 08:55:08;;;;;;;13.85;12.45;;;11.70;99.90;;;;;;2073475;28;20021;-70
2022/12/22 08:56:09;;;;;;;14.82;12.25;;;11.70;99.90;;;;;;2072662;28;20065;-70